sensor_id;sensor_type;location;lat;lon;timestamp;temperature;humidity
84335;DHT22;74512;51.190;3.198;2024-01-15T00:00:18;5.60;1.00
84335;DHT22;74512;51.190;3.198;2024-01-15T00:02:44;5.50;1.00
84335;DHT22;74512;51.190;3.198;2024-01-15T00:05:10;5.30;1.00
84335;DHT22;74512;51.190;3.198;2024-01-15T00:07:35;5.30;1.00
84335;DHT22;74512;51.190;3.198;2024-01-15T00:10:02;5.20;1.00
84335;DHT22;74512;51.190;3.198;2024-01-15T00:12:28;5.20;1.00
84335;DHT22;74512;51.190;3.198;2024-01-15T00:14:53;5.10;1.00
84335;DHT22;74512;51.190;3.198;2024-01-15T00:17:19;5.10;1.00
84335;DHT22;74512;51.190;3.198;2024-01-15T00:19:45;5.10;1.00
84335;DHT22;74512;51.190;3.198;2024-01-15T00:22:10;5.10;1.00
84335;DHT22;74512;51.190;3.198;2024-01-15T00:24:36;5.00;1.00
84335;DHT22;74512;51.190;3.198;2024-01-15T00:27:01;5.10;1.00
84335;DHT22;74512;51.190;3.198;2024-01-15T00:29:27;5.30;1.00
84335;DHT22;74512;51.190;3.198;2024-01-15T00:31:53;5.40;1.00
84335;DHT22;74512;51.190;3.198;2024-01-15T00:34:18;5.60;1.00
84335;DHT22;74512;51.190;3.198;2024-01-15T00:36:44;5.80;1.00
84335;DHT22;74512;51.190;3.198;2024-01-15T00:39:10;5.90;1.00
84335;DHT22;74512;51.190;3.198;2024-01-15T00:41:36;5.60;1.00
84335;DHT22;74512;51.190;3.198;2024-01-15T00:44:02;5.60;1.00
84335;DHT22;74512;51.190;3.198;2024-01-15T00:46:28;5.80;1.00
84335;DHT22;74512;51.190;3.198;2024-01-15T00:48:54;5.90;1.00
84335;DHT22;74512;51.190;3.198;2024-01-15T00:51:20;5.70;1.00
84335;DHT22;74512;51.190;3.198;2024-01-15T00:53:45;5.80;1.00
84335;DHT22;74512;51.190;3.198;2024-01-15T00:56:11;6.00;1.00
84335;DHT22;74512;51.190;3.198;2024-01-15T00:58:36;6.20;1.00
84335;DHT22;74512;51.190;3.198;2024-01-15T01:01:02;6.10;1.00
84335;DHT22;74512;51.190;3.198;2024-01-15T01:03:28;6.20;1.00
84335;DHT22;74512;51.190;3.198;2024-01-15T01:05:54;6.20;1.00
84335;DHT22;74512;51.190;3.198;2024-01-15T01:08:19;6.30;1.00
84335;DHT22;74512;51.190;3.198;2024-01-15T01:10:45;6.40;1.00
84335;DHT22;74512;51.190;3.198;2024-01-15T01:13:11;6.30;1.00
84335;DHT22;74512;51.190;3.198;2024-01-15T01:15:36;6.10;1.00
84335;DHT22;74512;51.190;3.198;2024-01-15T01:18:02;6.10;1.00
84335;DHT22;74512;51.190;3.198;2024-01-15T01:20:28;6.20;1.00
84335;DHT22;74512;51.190;3.198;2024-01-15T01:22:54;6.10;1.00
84335;DHT22;74512;51.190;3.198;2024-01-15T01:25:19;6.10;1.00
84335;DHT22;74512;51.190;3.198;2024-01-15T01:27:45;6.20;1.00
84335;DHT22;74512;51.190;3.198;2024-01-15T01:30:11;6.10;1.00
84335;DHT22;74512;51.190;3.198;2024-01-15T01:32:37;6.10;1.00
84335;DHT22;74512;51.190;3.198;2024-01-15T01:35:03;6.00;1.00
84335;DHT22;74512;51.190;3.198;2024-01-15T01:37:29;6.10;1.00
84335;DHT22;74512;51.190;3.198;2024-01-15T01:39:54;5.90;1.00
84335;DHT22;74512;51.190;3.198;2024-01-15T01:42:20;5.60;1.00
84335;DHT22;74512;51.190;3.198;2024-01-15T01:44:46;5.50;1.00
84335;DHT22;74512;51.190;3.198;2024-01-15T01:47:12;5.70;1.00
84335;DHT22;74512;51.190;3.198;2024-01-15T01:49:38;5.70;1.00
84335;DHT22;74512;51.190;3.198;2024-01-15T01:52:05;5.70;1.00
84335;DHT22;74512;51.190;3.198;2024-01-15T01:54:35;5.60;1.00
84335;DHT22;74512;51.190;3.198;2024-01-15T01:57:02;5.60;1.00
84335;DHT22;74512;51.190;3.198;2024-01-15T01:59:29;5.80;1.00
84335;DHT22;74512;51.190;3.198;2024-01-15T02:01:56;6.10;1.00
84335;DHT22;74512;51.190;3.198;2024-01-15T02:04:25;6.10;1.00
84335;DHT22;74512;51.190;3.198;2024-01-15T02:06:51;6.20;1.00
84335;DHT22;74512;51.190;3.198;2024-01-15T02:09:20;6.20;1.00
84335;DHT22;74512;51.190;3.198;2024-01-15T02:11:47;6.20;1.00
84335;DHT22;74512;51.190;3.198;2024-01-15T02:14:14;6.30;1.00
84335;DHT22;74512;51.190;3.198;2024-01-15T02:16:40;6.20;1.00
84335;DHT22;74512;51.190;3.198;2024-01-15T02:19:06;6.00;1.00
84335;DHT22;74512;51.190;3.198;2024-01-15T02:21:32;5.90;1.00
84335;DHT22;74512;51.190;3.198;2024-01-15T02:23:58;5.80;1.00
84335;DHT22;74512;51.190;3.198;2024-01-15T02:26:24;5.70;1.00
84335;DHT22;74512;51.190;3.198;2024-01-15T02:28:51;5.60;1.00
84335;DHT22;74512;51.190;3.198;2024-01-15T02:31:17;5.60;1.00
84335;DHT22;74512;51.190;3.198;2024-01-15T02:33:43;5.70;1.00
84335;DHT22;74512;51.190;3.198;2024-01-15T02:36:10;5.90;1.00
84335;DHT22;74512;51.190;3.198;2024-01-15T02:38:36;5.90;1.00
84335;DHT22;74512;51.190;3.198;2024-01-15T02:41:01;6.00;1.00
84335;DHT22;74512;51.190;3.198;2024-01-15T02:43:27;6.20;1.00
84335;DHT22;74512;51.190;3.198;2024-01-15T02:45:53;6.20;1.00
84335;DHT22;74512;51.190;3.198;2024-01-15T02:48:18;6.40;1.00
84335;DHT22;74512;51.190;3.198;2024-01-15T02:50:44;6.20;1.00
84335;DHT22;74512;51.190;3.198;2024-01-15T02:53:09;5.90;1.00
84335;DHT22;74512;51.190;3.198;2024-01-15T02:55:35;5.70;1.00
84335;DHT22;74512;51.190;3.198;2024-01-15T02:58:01;5.50;1.00
84335;DHT22;74512;51.190;3.198;2024-01-15T03:00:26;5.50;1.00
84335;DHT22;74512;51.190;3.198;2024-01-15T03:02:52;5.20;1.00
84335;DHT22;74512;51.190;3.198;2024-01-15T03:05:18;5.30;1.00
84335;DHT22;74512;51.190;3.198;2024-01-15T03:07:43;5.30;1.00
84335;DHT22;74512;51.190;3.198;2024-01-15T03:10:09;5.50;1.00
84335;DHT22;74512;51.190;3.198;2024-01-15T03:12:35;5.60;1.00
84335;DHT22;74512;51.190;3.198;2024-01-15T03:15:01;5.50;1.00
84335;DHT22;74512;51.190;3.198;2024-01-15T03:17:26;5.40;1.00
84335;DHT22;74512;51.190;3.198;2024-01-15T03:19:52;5.40;1.00
84335;DHT22;74512;51.190;3.198;2024-01-15T03:22:17;5.40;1.00
84335;DHT22;74512;51.190;3.198;2024-01-15T03:24:44;5.50;1.00
84335;DHT22;74512;51.190;3.198;2024-01-15T03:27:09;5.60;1.00
84335;DHT22;74512;51.190;3.198;2024-01-15T03:29:35;5.70;1.00
84335;DHT22;74512;51.190;3.198;2024-01-15T03:32:01;5.80;1.00
84335;DHT22;74512;51.190;3.198;2024-01-15T03:34:26;6.00;1.00
84335;DHT22;74512;51.190;3.198;2024-01-15T03:36:52;6.00;1.00
84335;DHT22;74512;51.190;3.198;2024-01-15T03:39:18;6.10;1.00
84335;DHT22;74512;51.190;3.198;2024-01-15T03:41:43;6.10;1.00
84335;DHT22;74512;51.190;3.198;2024-01-15T03:44:09;6.30;1.00
84335;DHT22;74512;51.190;3.198;2024-01-15T03:46:35;6.20;1.00
84335;DHT22;74512;51.190;3.198;2024-01-15T03:49:00;6.10;1.00
84335;DHT22;74512;51.190;3.198;2024-01-15T03:51:26;6.00;1.00
84335;DHT22;74512;51.190;3.198;2024-01-15T03:53:52;6.00;1.00
84335;DHT22;74512;51.190;3.198;2024-01-15T03:56:17;6.00;1.00
84335;DHT22;74512;51.190;3.198;2024-01-15T03:58:43;6.00;1.00
84335;DHT22;74512;51.190;3.198;2024-01-15T04:01:12;6.00;1.00
84335;DHT22;74512;51.190;3.198;2024-01-15T04:03:37;6.00;1.00
84335;DHT22;74512;51.190;3.198;2024-01-15T04:06:04;5.90;1.00
84335;DHT22;74512;51.190;3.198;2024-01-15T04:08:29;6.00;1.00
84335;DHT22;74512;51.190;3.198;2024-01-15T04:10:55;6.00;1.00
84335;DHT22;74512;51.190;3.198;2024-01-15T04:13:21;6.20;1.00
84335;DHT22;74512;51.190;3.198;2024-01-15T04:15:47;6.60;1.00
84335;DHT22;74512;51.190;3.198;2024-01-15T04:18:12;6.40;1.00
84335;DHT22;74512;51.190;3.198;2024-01-15T04:20:38;6.60;1.00
84335;DHT22;74512;51.190;3.198;2024-01-15T04:23:04;6.70;1.00
84335;DHT22;74512;51.190;3.198;2024-01-15T04:25:30;6.80;1.00
84335;DHT22;74512;51.190;3.198;2024-01-15T04:27:56;6.80;1.00
84335;DHT22;74512;51.190;3.198;2024-01-15T04:30:21;6.50;1.00
84335;DHT22;74512;51.190;3.198;2024-01-15T04:32:47;6.30;1.00
84335;DHT22;74512;51.190;3.198;2024-01-15T04:35:13;6.10;1.00
84335;DHT22;74512;51.190;3.198;2024-01-15T04:37:39;6.30;1.00
84335;DHT22;74512;51.190;3.198;2024-01-15T04:40:06;6.50;1.00
84335;DHT22;74512;51.190;3.198;2024-01-15T04:42:32;6.60;1.00
84335;DHT22;74512;51.190;3.198;2024-01-15T04:44:57;6.50;1.00
84335;DHT22;74512;51.190;3.198;2024-01-15T04:47:23;6.60;1.00
84335;DHT22;74512;51.190;3.198;2024-01-15T04:49:49;6.40;1.00
84335;DHT22;74512;51.190;3.198;2024-01-15T04:52:15;6.20;1.00
84335;DHT22;74512;51.190;3.198;2024-01-15T04:54:40;6.10;1.00
84335;DHT22;74512;51.190;3.198;2024-01-15T04:57:06;6.10;1.00
84335;DHT22;74512;51.190;3.198;2024-01-15T04:59:31;6.00;1.00
84335;DHT22;74512;51.190;3.198;2024-01-15T05:01:57;5.80;1.00
84335;DHT22;74512;51.190;3.198;2024-01-15T05:04:23;6.00;1.00
84335;DHT22;74512;51.190;3.198;2024-01-15T05:06:50;6.10;1.00
84335;DHT22;74512;51.190;3.198;2024-01-15T05:09:16;6.20;1.00
84335;DHT22;74512;51.190;3.198;2024-01-15T05:11:43;6.20;1.00
84335;DHT22;74512;51.190;3.198;2024-01-15T05:14:09;6.10;1.00
84335;DHT22;74512;51.190;3.198;2024-01-15T05:16:35;6.20;1.00
84335;DHT22;74512;51.190;3.198;2024-01-15T05:19:00;6.20;1.00
84335;DHT22;74512;51.190;3.198;2024-01-15T05:21:26;6.30;1.00
84335;DHT22;74512;51.190;3.198;2024-01-15T05:23:51;6.20;1.00
84335;DHT22;74512;51.190;3.198;2024-01-15T05:26:17;6.50;1.00
84335;DHT22;74512;51.190;3.198;2024-01-15T05:28:43;6.50;1.00
84335;DHT22;74512;51.190;3.198;2024-01-15T05:31:09;6.60;1.00
84335;DHT22;74512;51.190;3.198;2024-01-15T05:33:36;6.50;1.00
84335;DHT22;74512;51.190;3.198;2024-01-15T05:36:02;6.30;1.00
84335;DHT22;74512;51.190;3.198;2024-01-15T05:38:28;6.30;1.00
84335;DHT22;74512;51.190;3.198;2024-01-15T05:40:53;6.40;1.00
84335;DHT22;74512;51.190;3.198;2024-01-15T05:43:19;6.50;1.00
84335;DHT22;74512;51.190;3.198;2024-01-15T05:45:45;6.50;1.00
84335;DHT22;74512;51.190;3.198;2024-01-15T05:48:11;6.30;1.00
84335;DHT22;74512;51.190;3.198;2024-01-15T05:50:38;6.40;1.00
84335;DHT22;74512;51.190;3.198;2024-01-15T05:53:03;6.40;1.00
84335;DHT22;74512;51.190;3.198;2024-01-15T05:55:29;6.50;1.00
84335;DHT22;74512;51.190;3.198;2024-01-15T05:57:55;6.40;1.00
84335;DHT22;74512;51.190;3.198;2024-01-15T06:00:20;6.30;1.00
84335;DHT22;74512;51.190;3.198;2024-01-15T06:02:46;6.30;1.00
84335;DHT22;74512;51.190;3.198;2024-01-15T06:05:12;6.00;1.00
84335;DHT22;74512;51.190;3.198;2024-01-15T06:07:37;6.10;1.00
84335;DHT22;74512;51.190;3.198;2024-01-15T06:10:03;6.10;1.00
84335;DHT22;74512;51.190;3.198;2024-01-15T06:12:32;6.20;1.00
84335;DHT22;74512;51.190;3.198;2024-01-15T06:14:59;6.10;1.00
84335;DHT22;74512;51.190;3.198;2024-01-15T06:17:24;6.20;1.00
84335;DHT22;74512;51.190;3.198;2024-01-15T06:19:50;6.40;1.00
84335;DHT22;74512;51.190;3.198;2024-01-15T06:22:16;6.30;1.00
84335;DHT22;74512;51.190;3.198;2024-01-15T06:24:41;6.30;1.00
84335;DHT22;74512;51.190;3.198;2024-01-15T06:27:08;6.40;1.00
84335;DHT22;74512;51.190;3.198;2024-01-15T06:29:33;6.40;1.00
84335;DHT22;74512;51.190;3.198;2024-01-15T06:31:59;6.50;1.00
84335;DHT22;74512;51.190;3.198;2024-01-15T06:34:24;6.40;1.00
84335;DHT22;74512;51.190;3.198;2024-01-15T06:36:50;6.40;1.00
84335;DHT22;74512;51.190;3.198;2024-01-15T06:39:16;6.10;1.00
84335;DHT22;74512;51.190;3.198;2024-01-15T06:41:41;5.90;1.00
84335;DHT22;74512;51.190;3.198;2024-01-15T06:44:12;6.10;1.00
84335;DHT22;74512;51.190;3.198;2024-01-15T06:46:44;6.20;1.00
84335;DHT22;74512;51.190;3.198;2024-01-15T06:49:11;6.20;1.00
84335;DHT22;74512;51.190;3.198;2024-01-15T06:51:37;6.10;1.00
84335;DHT22;74512;51.190;3.198;2024-01-15T06:54:03;6.20;1.00
84335;DHT22;74512;51.190;3.198;2024-01-15T06:56:28;6.20;1.00
84335;DHT22;74512;51.190;3.198;2024-01-15T06:58:54;6.30;1.00
84335;DHT22;74512;51.190;3.198;2024-01-15T07:01:19;6.30;1.00
84335;DHT22;74512;51.190;3.198;2024-01-15T07:03:45;5.90;1.00
84335;DHT22;74512;51.190;3.198;2024-01-15T07:06:11;5.90;1.00
84335;DHT22;74512;51.190;3.198;2024-01-15T07:08:38;6.10;1.00
84335;DHT22;74512;51.190;3.198;2024-01-15T07:11:04;5.90;1.00
84335;DHT22;74512;51.190;3.198;2024-01-15T07:13:30;6.20;1.00
84335;DHT22;74512;51.190;3.198;2024-01-15T07:15:56;6.40;1.00
84335;DHT22;74512;51.190;3.198;2024-01-15T07:18:22;6.50;1.00
84335;DHT22;74512;51.190;3.198;2024-01-15T07:20:47;6.50;1.00
84335;DHT22;74512;51.190;3.198;2024-01-15T07:23:13;6.50;1.00
84335;DHT22;74512;51.190;3.198;2024-01-15T07:25:39;6.50;1.00
84335;DHT22;74512;51.190;3.198;2024-01-15T07:28:04;6.40;1.00
84335;DHT22;74512;51.190;3.198;2024-01-15T07:30:30;6.20;1.00
84335;DHT22;74512;51.190;3.198;2024-01-15T07:32:56;5.80;1.00
84335;DHT22;74512;51.190;3.198;2024-01-15T07:35:21;6.10;1.00
84335;DHT22;74512;51.190;3.198;2024-01-15T07:37:47;6.60;1.00
84335;DHT22;74512;51.190;3.198;2024-01-15T07:40:13;6.40;1.00
84335;DHT22;74512;51.190;3.198;2024-01-15T07:42:39;5.90;1.00
84335;DHT22;74512;51.190;3.198;2024-01-15T07:45:05;5.70;1.00
84335;DHT22;74512;51.190;3.198;2024-01-15T07:47:31;6.10;1.00
84335;DHT22;74512;51.190;3.198;2024-01-15T07:49:57;6.40;1.00
84335;DHT22;74512;51.190;3.198;2024-01-15T07:52:22;6.30;1.00
84335;DHT22;74512;51.190;3.198;2024-01-15T07:54:48;6.50;1.00
84335;DHT22;74512;51.190;3.198;2024-01-15T07:57:14;6.70;1.00
84335;DHT22;74512;51.190;3.198;2024-01-15T07:59:39;6.50;1.00
84335;DHT22;74512;51.190;3.198;2024-01-15T08:02:05;6.30;1.00
84335;DHT22;74512;51.190;3.198;2024-01-15T08:04:31;6.20;1.00
84335;DHT22;74512;51.190;3.198;2024-01-15T08:06:57;6.10;1.00
84335;DHT22;74512;51.190;3.198;2024-01-15T08:09:23;5.90;1.00
84335;DHT22;74512;51.190;3.198;2024-01-15T08:11:48;5.90;1.00
84335;DHT22;74512;51.190;3.198;2024-01-15T08:14:17;6.30;1.00
84335;DHT22;74512;51.190;3.198;2024-01-15T08:16:43;6.60;1.00
84335;DHT22;74512;51.190;3.198;2024-01-15T08:19:09;6.80;1.00
84335;DHT22;74512;51.190;3.198;2024-01-15T08:21:35;7.00;1.00
84335;DHT22;74512;51.190;3.198;2024-01-15T08:24:01;7.00;1.00
84335;DHT22;74512;51.190;3.198;2024-01-15T08:26:30;6.50;1.00
84335;DHT22;74512;51.190;3.198;2024-01-15T08:28:57;6.20;1.00
84335;DHT22;74512;51.190;3.198;2024-01-15T08:31:23;6.00;1.00
84335;DHT22;74512;51.190;3.198;2024-01-15T08:33:49;6.00;1.00
84335;DHT22;74512;51.190;3.198;2024-01-15T08:36:15;6.00;1.00
84335;DHT22;74512;51.190;3.198;2024-01-15T08:38:40;5.80;1.00
84335;DHT22;74512;51.190;3.198;2024-01-15T08:41:06;5.70;1.00
84335;DHT22;74512;51.190;3.198;2024-01-15T08:43:34;6.00;1.00
84335;DHT22;74512;51.190;3.198;2024-01-15T08:45:59;6.20;1.00
84335;DHT22;74512;51.190;3.198;2024-01-15T08:48:26;5.90;1.00
84335;DHT22;74512;51.190;3.198;2024-01-15T08:50:54;6.10;1.00
84335;DHT22;74512;51.190;3.198;2024-01-15T08:53:20;6.70;1.00
84335;DHT22;74512;51.190;3.198;2024-01-15T08:55:46;6.50;1.00
84335;DHT22;74512;51.190;3.198;2024-01-15T08:58:13;6.50;1.00
84335;DHT22;74512;51.190;3.198;2024-01-15T09:00:38;6.70;1.00
84335;DHT22;74512;51.190;3.198;2024-01-15T09:03:04;6.30;1.00
84335;DHT22;74512;51.190;3.198;2024-01-15T09:05:30;6.50;1.00
84335;DHT22;74512;51.190;3.198;2024-01-15T09:07:56;7.00;1.00
84335;DHT22;74512;51.190;3.198;2024-01-15T09:10:22;6.60;1.00
84335;DHT22;74512;51.190;3.198;2024-01-15T09:12:47;6.40;1.00
84335;DHT22;74512;51.190;3.198;2024-01-15T09:15:14;6.50;1.00
84335;DHT22;74512;51.190;3.198;2024-01-15T09:17:40;6.60;1.00
84335;DHT22;74512;51.190;3.198;2024-01-15T09:20:06;6.80;1.00
84335;DHT22;74512;51.190;3.198;2024-01-15T09:22:32;6.70;1.00
84335;DHT22;74512;51.190;3.198;2024-01-15T09:24:58;6.90;1.00
84335;DHT22;74512;51.190;3.198;2024-01-15T09:27:24;7.00;1.00
84335;DHT22;74512;51.190;3.198;2024-01-15T09:29:53;6.50;1.00
84335;DHT22;74512;51.190;3.198;2024-01-15T09:32:19;6.80;1.00
84335;DHT22;74512;51.190;3.198;2024-01-15T09:34:48;6.40;1.00
84335;DHT22;74512;51.190;3.198;2024-01-15T09:37:14;6.00;1.00
84335;DHT22;74512;51.190;3.198;2024-01-15T09:39:40;6.70;1.00
84335;DHT22;74512;51.190;3.198;2024-01-15T09:42:06;6.90;1.00
84335;DHT22;74512;51.190;3.198;2024-01-15T09:44:32;6.20;1.00
84335;DHT22;74512;51.190;3.198;2024-01-15T09:46:58;6.80;1.00
84335;DHT22;74512;51.190;3.198;2024-01-15T09:49:24;7.00;1.00
84335;DHT22;74512;51.190;3.198;2024-01-15T09:51:50;7.20;1.00
84335;DHT22;74512;51.190;3.198;2024-01-15T09:54:16;6.80;1.00
84335;DHT22;74512;51.190;3.198;2024-01-15T09:56:45;7.40;1.00
84335;DHT22;74512;51.190;3.198;2024-01-15T09:59:18;7.00;1.00
84335;DHT22;74512;51.190;3.198;2024-01-15T10:01:44;6.50;1.00
84335;DHT22;74512;51.190;3.198;2024-01-15T10:04:13;6.20;1.00
84335;DHT22;74512;51.190;3.198;2024-01-15T10:06:40;6.40;1.00
84335;DHT22;74512;51.190;3.198;2024-01-15T10:09:08;5.90;1.00
84335;DHT22;74512;51.190;3.198;2024-01-15T10:11:34;6.20;1.00
84335;DHT22;74512;51.190;3.198;2024-01-15T10:14:01;6.20;1.00
84335;DHT22;74512;51.190;3.198;2024-01-15T10:16:27;6.50;1.00
84335;DHT22;74512;51.190;3.198;2024-01-15T10:18:52;6.20;1.00
84335;DHT22;74512;51.190;3.198;2024-01-15T10:21:18;6.40;1.00
84335;DHT22;74512;51.190;3.198;2024-01-15T10:23:44;6.00;1.00
84335;DHT22;74512;51.190;3.198;2024-01-15T10:26:10;6.30;1.00
84335;DHT22;74512;51.190;3.198;2024-01-15T10:28:37;6.50;1.00
84335;DHT22;74512;51.190;3.198;2024-01-15T10:31:03;6.70;1.00
84335;DHT22;74512;51.190;3.198;2024-01-15T10:33:30;6.00;1.00
84335;DHT22;74512;51.190;3.198;2024-01-15T10:36:00;6.40;1.00
84335;DHT22;74512;51.190;3.198;2024-01-15T10:38:26;6.80;1.00
84335;DHT22;74512;51.190;3.198;2024-01-15T10:40:53;7.00;1.00
84335;DHT22;74512;51.190;3.198;2024-01-15T10:43:19;6.90;1.00
84335;DHT22;74512;51.190;3.198;2024-01-15T10:45:46;6.70;1.00
84335;DHT22;74512;51.190;3.198;2024-01-15T10:48:13;7.20;1.00
84335;DHT22;74512;51.190;3.198;2024-01-15T10:50:39;6.20;1.00
84335;DHT22;74512;51.190;3.198;2024-01-15T10:53:05;5.50;1.00
84335;DHT22;74512;51.190;3.198;2024-01-15T10:55:35;5.50;1.00
84335;DHT22;74512;51.190;3.198;2024-01-15T10:58:02;6.10;1.00
84335;DHT22;74512;51.190;3.198;2024-01-15T11:00:29;6.20;1.00
84335;DHT22;74512;51.190;3.198;2024-01-15T11:02:56;6.50;1.00
84335;DHT22;74512;51.190;3.198;2024-01-15T11:05:23;6.70;1.00
84335;DHT22;74512;51.190;3.198;2024-01-15T11:07:49;6.70;1.00
84335;DHT22;74512;51.190;3.198;2024-01-15T11:13:53;6.70;1.00
84335;DHT22;74512;51.190;3.198;2024-01-15T11:15:58;6.00;1.00
84335;DHT22;74512;51.190;3.198;2024-01-15T11:18:27;5.70;1.00
84335;DHT22;74512;51.190;3.198;2024-01-15T11:23:59;6.00;1.00
84335;DHT22;74512;51.190;3.198;2024-01-15T11:28:58;6.50;1.00
84335;DHT22;74512;51.190;3.198;2024-01-15T11:34:09;6.70;1.00
84335;DHT22;74512;51.190;3.198;2024-01-15T11:41:59;6.80;1.00
84335;DHT22;74512;51.190;3.198;2024-01-15T11:44:25;6.60;1.00
84335;DHT22;74512;51.190;3.198;2024-01-15T11:47:03;6.40;1.00
84335;DHT22;74512;51.190;3.198;2024-01-15T11:52:16;6.60;1.00
84335;DHT22;74512;51.190;3.198;2024-01-15T11:54:47;6.20;1.00
84335;DHT22;74512;51.190;3.198;2024-01-15T11:57:21;6.20;1.00
84335;DHT22;74512;51.190;3.198;2024-01-15T11:59:49;6.20;1.00
84335;DHT22;74512;51.190;3.198;2024-01-15T12:02:15;6.70;1.00
84335;DHT22;74512;51.190;3.198;2024-01-15T12:04:41;6.70;1.00
84335;DHT22;74512;51.190;3.198;2024-01-15T12:07:06;6.90;1.00
84335;DHT22;74512;51.190;3.198;2024-01-15T12:09:32;6.80;1.00
84335;DHT22;74512;51.190;3.198;2024-01-15T12:12:03;6.50;1.00
84335;DHT22;74512;51.190;3.198;2024-01-15T12:14:33;6.30;1.00
84335;DHT22;74512;51.190;3.198;2024-01-15T12:17:00;6.50;1.00
84335;DHT22;74512;51.190;3.198;2024-01-15T12:19:26;6.30;1.00
84335;DHT22;74512;51.190;3.198;2024-01-15T12:21:51;6.70;1.00
84335;DHT22;74512;51.190;3.198;2024-01-15T12:24:17;6.60;1.00
84335;DHT22;74512;51.190;3.198;2024-01-15T12:26:44;6.20;1.00
84335;DHT22;74512;51.190;3.198;2024-01-15T12:29:13;6.30;1.00
84335;DHT22;74512;51.190;3.198;2024-01-15T12:31:39;6.00;1.00
84335;DHT22;74512;51.190;3.198;2024-01-15T12:34:04;5.90;1.00
84335;DHT22;74512;51.190;3.198;2024-01-15T12:36:31;6.00;1.00
84335;DHT22;74512;51.190;3.198;2024-01-15T12:39:00;6.40;1.00
84335;DHT22;74512;51.190;3.198;2024-01-15T12:41:25;6.30;1.00
84335;DHT22;74512;51.190;3.198;2024-01-15T12:43:51;5.90;1.00
84335;DHT22;74512;51.190;3.198;2024-01-15T12:46:17;6.10;1.00
84335;DHT22;74512;51.190;3.198;2024-01-15T12:48:44;6.10;1.00
84335;DHT22;74512;51.190;3.198;2024-01-15T12:51:10;5.90;1.00
84335;DHT22;74512;51.190;3.198;2024-01-15T12:53:36;5.90;1.00
84335;DHT22;74512;51.190;3.198;2024-01-15T12:56:01;6.00;1.00
84335;DHT22;74512;51.190;3.198;2024-01-15T12:58:27;6.00;1.00
84335;DHT22;74512;51.190;3.198;2024-01-15T13:00:52;5.90;1.00
84335;DHT22;74512;51.190;3.198;2024-01-15T13:03:18;6.00;1.00
84335;DHT22;74512;51.190;3.198;2024-01-15T13:05:44;5.90;1.00
84335;DHT22;74512;51.190;3.198;2024-01-15T13:08:10;6.00;1.00
84335;DHT22;74512;51.190;3.198;2024-01-15T13:10:36;6.30;1.00
84335;DHT22;74512;51.190;3.198;2024-01-15T13:13:02;5.90;1.00
84335;DHT22;74512;51.190;3.198;2024-01-15T13:15:27;5.90;1.00
84335;DHT22;74512;51.190;3.198;2024-01-15T13:17:53;5.70;1.00
84335;DHT22;74512;51.190;3.198;2024-01-15T13:20:19;6.00;1.00
84335;DHT22;74512;51.190;3.198;2024-01-15T13:22:45;6.00;1.00
84335;DHT22;74512;51.190;3.198;2024-01-15T13:25:11;5.90;1.00
84335;DHT22;74512;51.190;3.198;2024-01-15T13:27:37;6.30;1.00
84335;DHT22;74512;51.190;3.198;2024-01-15T13:30:03;6.20;1.00
84335;DHT22;74512;51.190;3.198;2024-01-15T13:32:30;6.30;1.00
84335;DHT22;74512;51.190;3.198;2024-01-15T13:34:56;6.30;1.00
84335;DHT22;74512;51.190;3.198;2024-01-15T13:37:22;6.20;1.00
84335;DHT22;74512;51.190;3.198;2024-01-15T13:39:50;6.10;1.00
84335;DHT22;74512;51.190;3.198;2024-01-15T13:42:17;5.80;1.00
84335;DHT22;74512;51.190;3.198;2024-01-15T13:44:42;6.00;1.00
84335;DHT22;74512;51.190;3.198;2024-01-15T13:47:08;6.40;1.00
84335;DHT22;74512;51.190;3.198;2024-01-15T13:49:34;6.30;1.00
84335;DHT22;74512;51.190;3.198;2024-01-15T13:52:01;6.40;1.00
84335;DHT22;74512;51.190;3.198;2024-01-15T13:54:29;6.10;1.00
84335;DHT22;74512;51.190;3.198;2024-01-15T13:56:55;6.20;1.00
84335;DHT22;74512;51.190;3.198;2024-01-15T13:59:21;6.20;1.00
84335;DHT22;74512;51.190;3.198;2024-01-15T14:01:47;6.10;1.00
84335;DHT22;74512;51.190;3.198;2024-01-15T14:04:13;6.00;1.00
84335;DHT22;74512;51.190;3.198;2024-01-15T14:06:39;6.10;1.00
84335;DHT22;74512;51.190;3.198;2024-01-15T14:09:04;6.20;1.00
84335;DHT22;74512;51.190;3.198;2024-01-15T14:11:30;6.30;1.00
84335;DHT22;74512;51.190;3.198;2024-01-15T14:13:56;6.40;1.00
84335;DHT22;74512;51.190;3.198;2024-01-15T14:16:22;6.10;1.00
84335;DHT22;74512;51.190;3.198;2024-01-15T14:18:48;6.10;1.00
84335;DHT22;74512;51.190;3.198;2024-01-15T14:21:13;6.00;1.00
84335;DHT22;74512;51.190;3.198;2024-01-15T14:23:40;6.50;1.00
84335;DHT22;74512;51.190;3.198;2024-01-15T14:26:05;6.60;1.00
84335;DHT22;74512;51.190;3.198;2024-01-15T14:28:31;6.60;1.00
84335;DHT22;74512;51.190;3.198;2024-01-15T14:30:57;6.60;1.00
84335;DHT22;74512;51.190;3.198;2024-01-15T14:33:26;6.90;1.00
84335;DHT22;74512;51.190;3.198;2024-01-15T14:35:52;6.60;1.00
84335;DHT22;74512;51.190;3.198;2024-01-15T14:38:17;6.70;1.00
84335;DHT22;74512;51.190;3.198;2024-01-15T14:40:43;6.60;1.00
84335;DHT22;74512;51.190;3.198;2024-01-15T14:43:10;6.40;1.00
84335;DHT22;74512;51.190;3.198;2024-01-15T14:45:35;6.10;1.00
84335;DHT22;74512;51.190;3.198;2024-01-15T14:48:01;6.30;1.00
84335;DHT22;74512;51.190;3.198;2024-01-15T14:50:27;6.20;1.00
84335;DHT22;74512;51.190;3.198;2024-01-15T14:52:52;6.60;1.00
84335;DHT22;74512;51.190;3.198;2024-01-15T14:55:19;6.70;1.00
84335;DHT22;74512;51.190;3.198;2024-01-15T14:57:45;6.60;1.00
84335;DHT22;74512;51.190;3.198;2024-01-15T15:00:10;6.80;1.00
84335;DHT22;74512;51.190;3.198;2024-01-15T15:02:38;6.60;1.00
84335;DHT22;74512;51.190;3.198;2024-01-15T15:05:04;6.80;1.00
84335;DHT22;74512;51.190;3.198;2024-01-15T15:07:30;6.80;1.00
84335;DHT22;74512;51.190;3.198;2024-01-15T15:09:56;6.90;1.00
84335;DHT22;74512;51.190;3.198;2024-01-15T15:12:22;6.70;1.00
84335;DHT22;74512;51.190;3.198;2024-01-15T15:14:47;6.50;1.00
84335;DHT22;74512;51.190;3.198;2024-01-15T15:17:13;6.80;1.00
84335;DHT22;74512;51.190;3.198;2024-01-15T15:19:39;6.50;1.00
84335;DHT22;74512;51.190;3.198;2024-01-15T15:22:06;6.30;1.00
84335;DHT22;74512;51.190;3.198;2024-01-15T15:24:36;6.40;1.00
84335;DHT22;74512;51.190;3.198;2024-01-15T15:27:02;6.50;1.00
84335;DHT22;74512;51.190;3.198;2024-01-15T15:29:28;6.80;1.00
84335;DHT22;74512;51.190;3.198;2024-01-15T15:31:54;6.60;1.00
84335;DHT22;74512;51.190;3.198;2024-01-15T15:34:19;6.50;1.00
84335;DHT22;74512;51.190;3.198;2024-01-15T15:36:45;6.60;1.00
84335;DHT22;74512;51.190;3.198;2024-01-15T15:39:11;6.50;1.00
84335;DHT22;74512;51.190;3.198;2024-01-15T15:41:36;6.40;1.00
84335;DHT22;74512;51.190;3.198;2024-01-15T15:44:03;6.70;1.00
84335;DHT22;74512;51.190;3.198;2024-01-15T15:46:29;6.50;1.00
84335;DHT22;74512;51.190;3.198;2024-01-15T15:48:54;6.20;1.00
84335;DHT22;74512;51.190;3.198;2024-01-15T15:51:20;6.50;1.00
84335;DHT22;74512;51.190;3.198;2024-01-15T15:53:46;6.40;1.00
84335;DHT22;74512;51.190;3.198;2024-01-15T15:56:12;6.20;1.00
84335;DHT22;74512;51.190;3.198;2024-01-15T15:58:37;6.40;1.00
84335;DHT22;74512;51.190;3.198;2024-01-15T16:01:03;6.30;1.00
84335;DHT22;74512;51.190;3.198;2024-01-15T16:03:29;6.30;1.00
84335;DHT22;74512;51.190;3.198;2024-01-15T16:05:54;6.60;1.00
84335;DHT22;74512;51.190;3.198;2024-01-15T16:08:20;6.80;1.00
84335;DHT22;74512;51.190;3.198;2024-01-15T16:10:46;6.80;1.00
84335;DHT22;74512;51.190;3.198;2024-01-15T16:13:13;6.60;1.00